Time;durP1;ratioP1;P1;durP2;ratioP2;P2;SDS_P1;SDS_P2;PMS_P1;PMS_P2;Temp;Humidity;BMP_temperature;BMP_pressure;BME280_temperature;BME280_humidity;BME280_pressure;Samples;Min_cycle;Max_cycle;Signal;HPM_P1;HPM_P2
2021/01/31 00:00:30;;;;;;;;;;;19.60;37.90;;;;;;466605;256;1268;-53
2021/01/31 00:02:31;;;;;;;;;;;19.60;38.00;;;;;;470848;253;1129;-53
2021/01/31 00:04:33;;;;;;;;;;;19.60;37.90;;;;;;466626;256;1172;-54
2021/01/31 00:06:34;;;;;;;;;;;19.60;37.90;;;;;;470718;253;1217;-54
2021/01/31 00:08:35;;;;;;;;;;;19.60;37.90;;;;;;466779;255;1278;-53
2021/01/31 00:10:37;;;;;;;;;;;19.60;37.90;;;;;;470800;253;2137;-53
2021/01/31 00:12:38;;;;;;;;;;;19.70;37.90;;;;;;466795;255;1270;-54
2021/01/31 00:14:39;;;;;;;;;;;19.70;38.30;;;;;;470775;253;1253;-54
2021/01/31 00:16:40;;;;;;;;;;;19.70;37.80;;;;;;466630;256;1257;-53
2021/01/31 00:18:42;;;;;;;;;;;19.80;37.70;;;;;;470693;253;1432;-54
2021/01/31 00:20:43;;;;;;;;;;;19.80;37.70;;;;;;466618;255;1269;-54
2021/01/31 00:22:44;;;;;;;;;;;19.70;37.70;;;;;;470743;253;1226;-53
2021/01/31 00:24:53;;;;;;;;;;;19.70;37.80;;;;;;466825;255;1267;-54
2021/01/31 00:26:47;;;;;;;;;;;19.60;37.90;;;;;;470097;253;1951;-53
2021/01/31 00:28:48;;;;;;;;;;;19.60;38.10;;;;;;466669;255;1230;-54
2021/01/31 00:30:49;;;;;;;;;;;19.50;36.80;;;;;;470754;253;2214;-53
2021/01/31 00:32:51;;;;;;;;;;;19.50;38.20;;;;;;466630;255;1392;-53
2021/01/31 00:34:52;;;;;;;;;;;19.40;38.20;;;;;;470734;253;1182;-52
2021/01/31 00:36:53;;;;;;;;;;;19.40;38.40;;;;;;466589;255;1165;-54
2021/01/31 00:38:54;;;;;;;;;;;19.30;38.40;;;;;;470849;253;1268;-54
2021/01/31 00:40:56;;;;;;;;;;;19.30;38.50;;;;;;466578;256;1276;-53
2021/01/31 00:42:57;;;;;;;;;;;19.30;38.50;;;;;;470769;253;1242;-53
2021/01/31 00:44:58;;;;;;;;;;;19.20;38.60;;;;;;466618;256;1332;-54
2021/01/31 00:46:59;;;;;;;;;;;19.20;38.60;;;;;;470906;253;1336;-53
2021/01/31 00:49:01;;;;;;;;;;;19.10;38.70;;;;;;466656;255;1325;-53
2021/01/31 00:51:02;;;;;;;;;;;19.10;38.70;;;;;;470700;253;2144;-53
2021/01/31 00:53:03;;;;;;;;;;;19.10;38.80;;;;;;466737;255;1185;-54
2021/01/31 00:55:05;;;;;;;;;;;19.10;38.90;;;;;;470717;253;1297;-53
2021/01/31 00:57:06;;;;;;;;;;;19.00;38.90;;;;;;466638;255;1236;-54
2021/01/31 00:59:07;;;;;;;;;;;19.00;39.00;;;;;;470791;253;1276;-53
2021/01/31 01:01:08;;;;;;;;;;;19.00;37.70;;;;;;466642;256;1285;-53
2021/01/31 01:03:10;;;;;;;;;;;18.90;39.00;;;;;;470741;253;1251;-54
2021/01/31 01:05:11;;;;;;;;;;;18.90;39.00;;;;;;466639;255;1243;-53
2021/01/31 01:07:12;;;;;;;;;;;18.90;39.10;;;;;;470821;253;1184;-53
2021/01/31 01:09:13;;;;;;;;;;;18.90;39.10;;;;;;466803;255;1158;-54
2021/01/31 01:11:15;;;;;;;;;;;18.80;39.20;;;;;;470785;253;2191;-54
2021/01/31 01:13:16;;;;;;;;;;;18.80;38.00;;;;;;466652;255;1572;-53
2021/01/31 01:15:17;;;;;;;;;;;18.80;39.20;;;;;;470769;253;1310;-54
2021/01/31 01:17:19;;;;;;;;;;;18.70;39.20;;;;;;466659;256;1154;-53
2021/01/31 01:19:20;;;;;;;;;;;18.70;39.30;;;;;;470730;253;1212;-53
2021/01/31 01:21:21;;;;;;;;;;;18.70;39.30;;;;;;466799;255;1301;-54
2021/01/31 01:23:23;;;;;;;;;;;18.70;39.40;;;;;;470666;253;1323;-53
2021/01/31 01:25:24;;;;;;;;;;;18.70;39.40;;;;;;466847;255;1368;-53
2021/01/31 01:27:25;;;;;;;;;;;18.60;38.10;;;;;;470680;253;1261;-53
2021/01/31 01:29:26;;;;;;;;;;;18.60;39.40;;;;;;466732;255;1222;-54
2021/01/31 01:31:28;;;;;;;;;;;18.60;39.50;;;;;;470811;253;2211;-54
2021/01/31 01:33:29;;;;;;;;;;;18.60;39.60;;;;;;466745;255;1570;-53
2021/01/31 01:35:30;;;;;;;;;;;18.50;39.50;;;;;;470699;253;1477;-54
2021/01/31 01:37:31;;;;;;;;;;;18.50;39.50;;;;;;466829;255;1245;-54
2021/01/31 01:39:33;;;;;;;;;;;18.50;39.50;;;;;;470873;253;1248;-53
2021/01/31 01:41:34;;;;;;;;;;;18.50;39.50;;;;;;466673;255;1401;-53
2021/01/31 01:43:35;;;;;;;;;;;18.50;39.60;;;;;;470684;253;1479;-53
2021/01/31 01:45:36;;;;;;;;;;;18.50;39.60;;;;;;466652;256;1358;-53
2021/01/31 01:47:38;;;;;;;;;;;18.40;39.60;;;;;;470757;253;1166;-53
2021/01/31 01:49:39;;;;;;;;;;;18.40;39.60;;;;;;466750;255;1176;-53
2021/01/31 01:51:40;;;;;;;;;;;18.40;39.60;;;;;;470665;253;2195;-53
2021/01/31 01:53:42;;;;;;;;;;;18.40;39.70;;;;;;466666;256;1250;-53
2021/01/31 01:55:43;;;;;;;;;;;18.40;39.70;;;;;;470860;253;1392;-53
2021/01/31 01:57:44;;;;;;;;;;;18.40;39.80;;;;;;466715;255;1400;-54
2021/01/31 01:59:45;;;;;;;;;;;18.30;39.80;;;;;;470754;253;1264;-53
2021/01/31 02:01:47;;;;;;;;;;;18.30;39.80;;;;;;466600;256;1349;-53
2021/01/31 02:03:48;;;;;;;;;;;18.30;39.80;;;;;;470715;253;1213;-53
2021/01/31 02:05:49;;;;;;;;;;;18.30;39.80;;;;;;466681;255;1159;-53
2021/01/31 02:07:51;;;;;;;;;;;18.30;39.90;;;;;;470860;253;1156;-53
2021/01/31 02:09:52;;;;;;;;;;;18.30;39.90;;;;;;466690;255;1198;-53
2021/01/31 02:11:53;;;;;;;;;;;18.30;39.90;;;;;;470673;253;2140;-53
2021/01/31 02:13:55;;;;;;;;;;;18.20;38.60;;;;;;466712;255;1200;-53
2021/01/31 02:15:56;;;;;;;;;;;18.20;39.90;;;;;;470720;253;1267;-54
2021/01/31 02:17:57;;;;;;;;;;;18.20;39.90;;;;;;466760;255;1207;-53
2021/01/31 02:19:59;;;;;;;;;;;18.20;39.90;;;;;;470761;253;1382;-53
2021/01/31 02:22:00;;;;;;;;;;;18.20;38.60;;;;;;466729;255;1327;-53
2021/01/31 02:24:01;;;;;;;;;;;18.20;39.90;;;;;;470799;253;1207;-53
2021/01/31 02:26:02;;;;;;;;;;;18.20;40.00;;;;;;466692;255;1277;-53
2021/01/31 02:28:04;;;;;;;;;;;18.10;40.00;;;;;;470820;253;1154;-53
2021/01/31 02:30:05;;;;;;;;;;;18.10;40.00;;;;;;466740;255;1174;-53
2021/01/31 02:32:06;;;;;;;;;;;18.10;40.00;;;;;;470837;253;2139;-53
2021/01/31 02:34:07;;;;;;;;;;;18.10;40.10;;;;;;466656;256;1169;-53
2021/01/31 02:36:09;;;;;;;;;;;18.10;40.10;;;;;;470660;253;1325;-53
2021/01/31 02:38:10;;;;;;;;;;;18.10;40.10;;;;;;466795;255;1143;-53
2021/01/31 02:40:11;;;;;;;;;;;18.10;40.10;;;;;;470707;253;1279;-53
2021/01/31 02:42:13;;;;;;;;;;;18.10;40.10;;;;;;466557;256;1330;-53
2021/01/31 02:44:14;;;;;;;;;;;18.00;40.10;;;;;;470789;253;1204;-54
2021/01/31 02:46:15;;;;;;;;;;;18.00;40.10;;;;;;466730;255;1274;-53
2021/01/31 02:48:16;;;;;;;;;;;18.00;40.10;;;;;;470939;253;1240;-53
2021/01/31 02:50:18;;;;;;;;;;;18.00;40.10;;;;;;466654;256;1248;-53
2021/01/31 02:52:19;;;;;;;;;;;18.00;40.10;;;;;;470802;253;2202;-54
2021/01/31 02:54:20;;;;;;;;;;;18.00;40.10;;;;;;466626;255;1154;-54
2021/01/31 02:56:21;;;;;;;;;;;18.00;40.20;;;;;;470748;253;1330;-53
2021/01/31 02:58:23;;;;;;;;;;;18.00;40.20;;;;;;466751;255;1200;-53
2021/01/31 03:00:24;;;;;;;;;;;18.00;40.10;;;;;;470977;253;1391;-54
2021/01/31 03:02:25;;;;;;;;;;;18.00;40.00;;;;;;466785;255;1276;-53
2021/01/31 03:04:27;;;;;;;;;;;18.00;39.90;;;;;;470847;253;1157;-53
2021/01/31 03:06:28;;;;;;;;;;;18.10;39.90;;;;;;466887;255;1277;-54
2021/01/31 03:08:29;;;;;;;;;;;18.10;39.90;;;;;;470716;253;1236;-53
2021/01/31 03:10:30;;;;;;;;;;;18.10;39.80;;;;;;466599;256;1236;-53
2021/01/31 03:12:32;;;;;;;;;;;18.10;39.80;;;;;;470692;253;2140;-53
2021/01/31 03:14:33;;;;;;;;;;;18.20;39.70;;;;;;466726;254;1192;-54
2021/01/31 03:16:34;;;;;;;;;;;18.20;39.70;;;;;;470730;253;1365;-54
2021/01/31 03:18:36;;;;;;;;;;;18.20;39.60;;;;;;466626;256;1248;-53
2021/01/31 03:20:37;;;;;;;;;;;18.20;39.60;;;;;;470744;251;1762;-53
2021/01/31 03:22:39;;;;;;;;;;;18.20;39.60;;;;;;466682;255;1119;-53
2021/01/31 03:24:40;;;;;;;;;;;18.30;39.60;;;;;;470715;253;1182;-53
2021/01/31 03:26:41;;;;;;;;;;;18.30;39.50;;;;;;466743;253;1266;-54
2021/01/31 03:28:43;;;;;;;;;;;18.30;39.50;;;;;;470681;253;1919;-53
2021/01/31 03:30:44;;;;;;;;;;;18.30;39.40;;;;;;466626;256;1286;-54
2021/01/31 03:32:45;;;;;;;;;;;18.40;39.40;;;;;;470695;253;2252;-53
2021/01/31 03:34:46;;;;;;;;;;;18.40;39.40;;;;;;466651;256;1221;-54
2021/01/31 03:36:48;;;;;;;;;;;18.40;39.30;;;;;;470768;253;1282;-53
2021/01/31 03:38:49;;;;;;;;;;;18.40;39.30;;;;;;466660;256;1255;-53
2021/01/31 03:40:50;;;;;;;;;;;18.50;39.30;;;;;;470980;253;1373;-54
2021/01/31 03:42:52;;;;;;;;;;;18.50;39.20;;;;;;466933;255;1113;-54
2021/01/31 03:44:53;;;;;;;;;;;18.50;39.20;;;;;;470755;253;1190;-53
2021/01/31 03:46:54;;;;;;;;;;;18.50;39.20;;;;;;466584;256;1265;-53
2021/01/31 03:48:55;;;;;;;;;;;18.50;39.10;;;;;;470699;253;1335;-54
2021/01/31 03:50:57;;;;;;;;;;;18.60;39.10;;;;;;466562;256;2204;-54
2021/01/31 03:52:58;;;;;;;;;;;18.60;39.10;;;;;;470799;253;1196;-54
2021/01/31 03:54:59;;;;;;;;;;;18.60;39.00;;;;;;466660;256;1324;-54
2021/01/31 03:57:00;;;;;;;;;;;18.60;39.00;;;;;;470752;253;1243;-54
2021/01/31 03:59:02;;;;;;;;;;;18.60;39.00;;;;;;466702;255;1226;-53
2021/01/31 04:01:03;;;;;;;;;;;18.70;39.00;;;;;;470817;253;1353;-53
2021/01/31 04:03:04;;;;;;;;;;;18.60;39.00;;;;;;466678;255;1192;-54
2021/01/31 04:05:06;;;;;;;;;;;18.70;37.60;;;;;;470779;253;1354;-54
2021/01/31 04:07:07;;;;;;;;;;;18.70;38.90;;;;;;466643;255;1323;-54
2021/01/31 04:09:08;;;;;;;;;;;18.70;38.90;;;;;;470753;253;1203;-53
2021/01/31 04:11:09;;;;;;;;;;;18.80;38.90;;;;;;466640;256;2339;-54
2021/01/31 04:13:11;;;;;;;;;;;18.80;38.80;;;;;;470742;253;1163;-53
2021/01/31 04:15:12;;;;;;;;;;;18.70;38.80;;;;;;466650;256;1240;-53
2021/01/31 04:17:13;;;;;;;;;;;18.70;38.70;;;;;;470714;252;1263;-53
2021/01/31 04:19:15;;;;;;;;;;;18.80;38.80;;;;;;466676;256;1231;-54
2021/01/31 04:21:16;;;;;;;;;;;18.80;38.70;;;;;;470833;253;1241;-53
2021/01/31 04:23:17;;;;;;;;;;;18.80;38.70;;;;;;466723;255;1163;-54
2021/01/31 04:25:18;;;;;;;;;;;18.80;38.70;;;;;;470755;253;1123;-53
2021/01/31 04:27:20;;;;;;;;;;;18.80;38.60;;;;;;466847;252;1360;-53
2021/01/31 04:29:21;;;;;;;;;;;18.90;38.70;;;;;;470795;253;1238;-54
2021/01/31 04:31:22;;;;;;;;;;;18.90;38.60;;;;;;466570;256;2222;-53
2021/01/31 04:33:23;;;;;;;;;;;18.90;38.60;;;;;;470713;253;1170;-53
2021/01/31 04:35:25;;;;;;;;;;;18.90;38.60;;;;;;466577;256;1357;-54
2021/01/31 04:37:26;;;;;;;;;;;18.90;38.50;;;;;;470745;253;1208;-53
2021/01/31 04:39:27;;;;;;;;;;;18.90;38.50;;;;;;466732;255;1199;-53
2021/01/31 04:41:29;;;;;;;;;;;18.90;38.50;;;;;;470646;253;1177;-53
2021/01/31 04:43:30;;;;;;;;;;;18.90;38.50;;;;;;466589;255;2100;-53
2021/01/31 04:45:31;;;;;;;;;;;19.00;38.60;;;;;;470753;253;1358;-53
2021/01/31 04:47:32;;;;;;;;;;;19.00;38.50;;;;;;466459;255;1559;-53
2021/01/31 04:49:34;;;;;;;;;;;19.00;38.50;;;;;;470724;253;1258;-53
2021/01/31 04:51:35;;;;;;;;;;;19.00;37.20;;;;;;470650;253;2143;-54
2021/01/31 04:53:36;;;;;;;;;;;19.00;38.40;;;;;;466651;256;1172;-54
2021/01/31 04:55:38;;;;;;;;;;;19.00;38.40;;;;;;470717;253;1399;-53
2021/01/31 04:57:39;;;;;;;;;;;19.10;38.40;;;;;;466719;255;1152;-53
2021/01/31 04:59:40;;;;;;;;;;;19.00;38.40;;;;;;470701;253;1347;-54
2021/01/31 05:01:42;;;;;;;;;;;19.00;38.30;;;;;;466643;255;1282;-54
2021/01/31 05:03:43;;;;;;;;;;;19.10;38.40;;;;;;470723;253;1309;-54
2021/01/31 05:05:44;;;;;;;;;;;19.10;38.40;;;;;;466587;256;1343;-54
2021/01/31 05:07:45;;;;;;;;;;;19.10;38.30;;;;;;470716;253;1199;-54
2021/01/31 05:09:47;;;;;;;;;;;19.10;38.30;;;;;;466632;256;1182;-54
2021/01/31 05:11:48;;;;;;;;;;;19.10;38.30;;;;;;470647;253;2203;-53
2021/01/31 05:13:49;;;;;;;;;;;19.10;38.30;;;;;;466631;256;1238;-53
2021/01/31 05:15:51;;;;;;;;;;;19.10;38.30;;;;;;470746;253;1356;-54
2021/01/31 05:17:52;;;;;;;;;;;19.10;38.20;;;;;;466688;255;1221;-53
2021/01/31 05:19:53;;;;;;;;;;;19.10;36.90;;;;;;470807;253;1150;-53
2021/01/31 05:21:54;;;;;;;;;;;19.10;38.20;;;;;;466672;255;1261;-54
2021/01/31 05:23:56;;;;;;;;;;;19.20;38.20;;;;;;470703;253;1110;-53
2021/01/31 05:25:57;;;;;;;;;;;19.20;38.20;;;;;;466625;253;1261;-54
2021/01/31 05:27:58;;;;;;;;;;;19.20;38.20;;;;;;470723;253;1151;-53
2021/01/31 05:29:59;;;;;;;;;;;19.20;38.20;;;;;;466826;255;1176;-54
2021/01/31 05:32:01;;;;;;;;;;;19.20;38.10;;;;;;470675;253;2196;-53
2021/01/31 05:34:02;;;;;;;;;;;19.20;38.10;;;;;;466758;255;1259;-54
2021/01/31 05:36:03;;;;;;;;;;;19.20;38.10;;;;;;470816;253;1333;-53
2021/01/31 05:38:05;;;;;;;;;;;19.20;38.10;;;;;;466780;255;1175;-54
2021/01/31 05:40:06;;;;;;;;;;;19.20;38.10;;;;;;470893;253;1127;-53
2021/01/31 05:42:08;;;;;;;;;;;19.30;38.10;;;;;;466677;256;1227;-53
2021/01/31 05:44:09;;;;;;;;;;;19.30;38.10;;;;;;470734;253;1205;-54
2021/01/31 05:46:10;;;;;;;;;;;19.30;38.10;;;;;;466751;255;1470;-54
2021/01/31 05:48:11;;;;;;;;;;;19.30;38.10;;;;;;470763;253;1118;-53
2021/01/31 05:50:13;;;;;;;;;;;19.30;38.10;;;;;;466740;255;1210;-54
2021/01/31 05:52:14;;;;;;;;;;;19.30;38.00;;;;;;470680;253;2183;-54
2021/01/31 05:54:15;;;;;;;;;;;19.30;38.00;;;;;;466624;256;1165;-54
2021/01/31 05:56:17;;;;;;;;;;;19.30;38.00;;;;;;470818;253;1429;-53
2021/01/31 05:58:18;;;;;;;;;;;19.30;38.00;;;;;;466679;256;1278;-54
2021/01/31 06:00:19;;;;;;;;;;;19.30;38.00;;;;;;470771;253;1370;-54
2021/01/31 06:02:20;;;;;;;;;;;19.30;38.00;;;;;;466768;255;1403;-54
2021/01/31 06:04:22;;;;;;;;;;;19.30;38.00;;;;;;470721;253;1218;-54
2021/01/31 06:06:23;;;;;;;;;;;19.30;38.00;;;;;;466633;256;1173;-53
2021/01/31 06:08:24;;;;;;;;;;;19.30;38.00;;;;;;470755;253;1132;-53
2021/01/31 06:10:25;;;;;;;;;;;19.40;38.00;;;;;;466678;255;1264;-53
2021/01/31 06:12:27;;;;;;;;;;;19.40;38.00;;;;;;470692;253;2211;-53
2021/01/31 06:14:28;;;;;;;;;;;19.40;38.00;;;;;;466671;255;1398;-54
2021/01/31 06:16:29;;;;;;;;;;;19.40;38.00;;;;;;470748;253;1246;-54
2021/01/31 06:18:30;;;;;;;;;;;19.40;38.00;;;;;;466644;256;1262;-53
2021/01/31 06:20:32;;;;;;;;;;;19.40;37.90;;;;;;470765;249;1430;-54
2021/01/31 06:22:34;;;;;;;;;;;19.40;37.90;;;;;;466629;256;1160;-54
2021/01/31 06:24:35;;;;;;;;;;;19.40;37.90;;;;;;470717;253;1116;-54
2021/01/31 06:26:36;;;;;;;;;;;19.40;37.90;;;;;;466648;256;1424;-53
2021/01/31 06:28:37;;;;;;;;;;;19.40;37.90;;;;;;470800;253;1599;-53
2021/01/31 06:30:39;;;;;;;;;;;19.40;37.90;;;;;;466595;255;1367;-53
2021/01/31 06:32:40;;;;;;;;;;;19.40;37.90;;;;;;470762;253;2196;-54
2021/01/31 06:34:41;;;;;;;;;;;19.40;37.90;;;;;;466680;255;1182;-54
2021/01/31 06:36:42;;;;;;;;;;;19.40;37.90;;;;;;470718;253;1258;-53
2021/01/31 06:38:44;;;;;;;;;;;19.50;37.90;;;;;;466755;255;1154;-54
2021/01/31 06:40:45;;;;;;;;;;;19.40;37.90;;;;;;470771;253;1398;-53
2021/01/31 06:42:46;;;;;;;;;;;19.50;37.90;;;;;;466591;252;1256;-54
2021/01/31 06:44:48;;;;;;;;;;;19.50;37.90;;;;;;470831;253;1177;-53
2021/01/31 06:46:49;;;;;;;;;;;19.50;37.90;;;;;;466709;255;1219;-54
2021/01/31 06:48:50;;;;;;;;;;;19.50;37.90;;;;;;470833;253;1220;-53
2021/01/31 06:50:51;;;;;;;;;;;19.50;37.80;;;;;;466624;256;1251;-53
2021/01/31 06:52:53;;;;;;;;;;;19.50;37.80;;;;;;470758;253;2203;-53
2021/01/31 06:54:54;;;;;;;;;;;19.50;37.80;;;;;;466784;255;1152;-53
2021/01/31 06:56:55;;;;;;;;;;;19.50;37.80;;;;;;470892;253;1267;-53
2021/01/31 06:58:57;;;;;;;;;;;19.50;37.80;;;;;;466690;255;1224;-54
2021/01/31 07:00:58;;;;;;;;;;;19.50;37.80;;;;;;470925;253;1203;-54
2021/01/31 07:02:59;;;;;;;;;;;19.50;37.80;;;;;;466764;255;1267;-53
2021/01/31 07:05:00;;;;;;;;;;;19.50;37.80;;;;;;470742;253;1195;-53
2021/01/31 07:07:02;;;;;;;;;;;19.50;37.70;;;;;;466664;256;1315;-54
2021/01/31 07:09:03;;;;;;;;;;;19.50;37.70;;;;;;470741;253;1208;-54
2021/01/31 07:11:05;;;;;;;;;;;19.50;37.70;;;;;;466614;256;1336;-53
2021/01/31 07:13:05;;;;;;;;;;;19.50;37.70;;;;;;470766;253;2224;-54
2021/01/31 07:15:07;;;;;;;;;;;19.50;37.70;;;;;;470919;252;1189;-54
2021/01/31 07:17:08;;;;;;;;;;;19.50;37.70;;;;;;466678;255;1247;-53
2021/01/31 07:19:09;;;;;;;;;;;19.50;37.60;;;;;;470770;253;1464;-54
2021/01/31 07:21:11;;;;;;;;;;;19.60;37.70;;;;;;466720;255;1177;-53
2021/01/31 07:23:12;;;;;;;;;;;19.50;37.60;;;;;;470709;253;1217;-53
2021/01/31 07:25:13;;;;;;;;;;;19.50;37.60;;;;;;466864;255;1319;-53
2021/01/31 07:27:14;;;;;;;;;;;19.60;37.70;;;;;;470755;253;1206;-54
2021/01/31 07:29:16;;;;;;;;;;;19.60;37.70;;;;;;466640;256;1174;-54
2021/01/31 07:31:17;;;;;;;;;;;19.60;37.70;;;;;;470678;250;1412;-53
2021/01/31 07:33:18;;;;;;;;;;;19.60;37.70;;;;;;466525;256;2205;-54
2021/01/31 07:35:20;;;;;;;;;;;19.60;37.70;;;;;;470867;253;1202;-53
2021/01/31 07:37:21;;;;;;;;;;;19.60;37.70;;;;;;466638;255;1210;-54
2021/01/31 07:39:22;;;;;;;;;;;19.60;37.70;;;;;;470688;253;1278;-53
2021/01/31 07:41:23;;;;;;;;;;;19.60;37.70;;;;;;466708;255;1374;-54
2021/01/31 07:43:25;;;;;;;;;;;19.60;37.70;;;;;;470723;253;1167;-54
2021/01/31 07:45:26;;;;;;;;;;;19.60;37.70;;;;;;466617;255;1214;-53
2021/01/31 07:47:27;;;;;;;;;;;19.60;37.70;;;;;;470674;253;1478;-53
2021/01/31 07:49:28;;;;;;;;;;;19.60;37.70;;;;;;466654;256;1160;-53
2021/01/31 07:51:30;;;;;;;;;;;19.60;37.70;;;;;;470708;253;1260;-54
2021/01/31 07:53:31;;;;;;;;;;;19.60;37.70;;;;;;466613;256;2206;-54
2021/01/31 07:55:32;;;;;;;;;;;19.60;37.70;;;;;;470776;253;1253;-53
2021/01/31 07:57:34;;;;;;;;;;;19.60;37.60;;;;;;466613;249;1380;-54
2021/01/31 07:59:36;;;;;;;;;;;19.70;37.60;;;;;;470675;253;1244;-53
2021/01/31 08:01:37;;;;;;;;;;;19.70;37.60;;;;;;466685;255;1338;-54
2021/01/31 08:03:38;;;;;;;;;;;19.70;37.70;;;;;;470672;253;1315;-54
2021/01/31 08:05:39;;;;;;;;;;;19.60;37.60;;;;;;466637;256;1120;-53
2021/01/31 08:07:41;;;;;;;;;;;19.60;37.60;;;;;;470761;253;1332;-54
2021/01/31 08:09:42;;;;;;;;;;;19.70;37.70;;;;;;466708;255;1235;-54
2021/01/31 08:11:43;;;;;;;;;;;19.70;37.60;;;;;;470720;253;1255;-54
2021/01/31 08:13:47;;;;;;;;;;;19.70;37.60;;;;;;466617;256;2202;-54
2021/01/31 08:15:46;;;;;;;;;;;19.70;36.30;;;;;;470600;253;1828;-53
2021/01/31 08:17:48;;;;;;;;;;;19.70;37.60;;;;;;470665;253;1474;-53
2021/01/31 08:19:49;;;;;;;;;;;19.70;37.60;;;;;;466642;256;1204;-54
2021/01/31 08:21:50;;;;;;;;;;;19.70;37.60;;;;;;470819;253;1380;-54
2021/01/31 08:23:55;;;;;;;;;;;19.70;37.60;;;;;;466834;255;1250;-53
2021/01/31 08:25:56;;;;;;;;;;;19.70;37.60;;;;;;470767;253;1231;-54
2021/01/31 08:27:58;;;;;;;;;;;19.70;37.50;;;;;;466675;255;1188;-54
2021/01/31 08:29:59;;;;;;;;;;;19.70;37.50;;;;;;470819;253;1189;-54
2021/01/31 08:32:01;;;;;;;;;;;19.70;37.50;;;;;;466709;255;1277;-54
2021/01/31 08:34:02;;;;;;;;;;;19.70;37.50;;;;;;470797;253;2152;-53
2021/01/31 08:36:03;;;;;;;;;;;19.70;37.50;;;;;;466626;255;1243;-53
2021/01/31 08:38:04;;;;;;;;;;;19.80;37.60;;;;;;470732;253;1300;-54
2021/01/31 08:40:06;;;;;;;;;;;19.70;37.50;;;;;;466719;255;1349;-54
2021/01/31 08:42:07;;;;;;;;;;;19.70;37.50;;;;;;470697;253;1263;-54
2021/01/31 08:44:08;;;;;;;;;;;19.70;37.50;;;;;;466624;256;1278;-54
2021/01/31 08:46:10;;;;;;;;;;;19.70;37.50;;;;;;470705;253;1170;-53
2021/01/31 08:48:11;;;;;;;;;;;19.80;37.60;;;;;;466603;256;1166;-54
2021/01/31 08:50:12;;;;;;;;;;;19.70;37.50;;;;;;470767;253;1224;-54
2021/01/31 08:52:13;;;;;;;;;;;19.80;37.50;;;;;;466703;255;1238;-54
2021/01/31 08:54:15;;;;;;;;;;;19.80;37.60;;;;;;470984;253;2212;-53
2021/01/31 08:56:16;;;;;;;;;;;19.80;37.50;;;;;;466783;255;1267;-53
2021/01/31 08:58:17;;;;;;;;;;;19.80;37.50;;;;;;470892;253;1265;-54
2021/01/31 09:00:18;;;;;;;;;;;19.70;37.50;;;;;;466613;256;1244;-53
2021/01/31 09:02:20;;;;;;;;;;;19.80;37.50;;;;;;470656;253;1246;-53
2021/01/31 09:04:21;;;;;;;;;;;19.80;37.50;;;;;;466644;255;1209;-54
2021/01/31 09:06:22;;;;;;;;;;;19.70;36.20;;;;;;470764;253;1235;-53
2021/01/31 09:08:24;;;;;;;;;;;19.80;37.50;;;;;;466659;256;1170;-53
2021/01/31 09:10:25;;;;;;;;;;;19.80;37.50;;;;;;470808;253;1253;-53
2021/01/31 09:12:26;;;;;;;;;;;19.80;37.40;;;;;;466673;255;1243;-54
2021/01/31 09:14:27;;;;;;;;;;;19.80;36.10;;;;;;470690;253;2203;-54
2021/01/31 09:16:29;;;;;;;;;;;19.80;37.50;;;;;;466619;256;1280;-54
2021/01/31 09:18:30;;;;;;;;;;;19.80;37.50;;;;;;470802;253;1174;-53
2021/01/31 09:20:31;;;;;;;;;;;19.80;36.10;;;;;;466754;255;1169;-54
2021/01/31 09:22:32;;;;;;;;;;;19.80;37.40;;;;;;470812;253;1263;-53
2021/01/31 09:24:34;;;;;;;;;;;19.80;37.40;;;;;;466752;255;1327;-54
2021/01/31 09:26:35;;;;;;;;;;;19.80;37.40;;;;;;470727;253;1455;-54
2021/01/31 09:28:37;;;;;;;;;;;19.90;36.10;;;;;;466649;256;1293;-54
2021/01/31 09:30:38;;;;;;;;;;;19.90;37.30;;;;;;470754;253;1181;-54
2021/01/31 09:32:39;;;;;;;;;;;19.90;37.20;;;;;;466609;255;1410;-53
2021/01/31 09:34:41;;;;;;;;;;;19.90;37.20;;;;;;470837;253;2100;-54
2021/01/31 09:36:42;;;;;;;;;;;19.90;37.40;;;;;;466719;255;1340;-54
2021/01/31 09:38:43;;;;;;;;;;;19.80;37.50;;;;;;470915;253;1283;-53
2021/01/31 09:40:44;;;;;;;;;;;19.70;37.60;;;;;;466780;255;1238;-53
2021/01/31 09:42:46;;;;;;;;;;;19.70;37.70;;;;;;470994;253;1220;-54
2021/01/31 09:44:47;;;;;;;;;;;19.60;37.80;;;;;;466682;256;1397;-53
2021/01/31 09:46:48;;;;;;;;;;;19.50;37.90;;;;;;470828;253;1223;-53
2021/01/31 09:48:50;;;;;;;;;;;19.50;38.00;;;;;;466624;256;1210;-53
2021/01/31 09:50:51;;;;;;;;;;;19.40;38.10;;;;;;470681;253;1198;-53
2021/01/31 09:52:52;;;;;;;;;;;19.30;38.30;;;;;;466637;255;1250;-54
2021/01/31 09:54:53;;;;;;;;;;;19.30;38.40;;;;;;470740;253;2214;-53
2021/01/31 09:56:55;;;;;;;;;;;19.20;38.50;;;;;;466778;255;1288;-54
2021/01/31 09:58:56;;;;;;;;;;;19.10;38.50;;;;;;470818;253;1253;-54
2021/01/31 10:00:57;;;;;;;;;;;19.10;38.70;;;;;;466654;255;1179;-53
2021/01/31 10:02:58;;;;;;;;;;;19.00;38.80;;;;;;470660;253;1312;-54
2021/01/31 10:05:01;;;;;;;;;;;19.00;38.90;;;;;;466785;255;1101;-53
2021/01/31 10:07:01;;;;;;;;;;;18.90;38.90;;;;;;470753;253;1394;-53
2021/01/31 10:09:02;;;;;;;;;;;18.90;39.00;;;;;;466599;250;1404;-53
2021/01/31 10:11:04;;;;;;;;;;;18.80;39.10;;;;;;470741;253;1234;-53
2021/01/31 10:13:05;;;;;;;;;;;18.80;39.20;;;;;;466636;256;2142;-53
2021/01/31 10:15:06;;;;;;;;;;;18.70;39.20;;;;;;470898;253;1183;-53
2021/01/31 10:17:07;;;;;;;;;;;18.70;39.30;;;;;;466718;255;1261;-53
2021/01/31 10:19:09;;;;;;;;;;;18.60;39.30;;;;;;470877;253;1461;-54
2021/01/31 10:21:10;;;;;;;;;;;18.60;39.30;;;;;;466650;256;1495;-53
2021/01/31 10:23:11;;;;;;;;;;;18.60;39.40;;;;;;470724;253;1118;-53
2021/01/31 10:25:12;;;;;;;;;;;18.60;39.40;;;;;;466811;255;993;-53
2021/01/31 10:27:14;;;;;;;;;;;18.50;39.40;;;;;;470723;252;1196;-54
2021/01/31 10:29:15;;;;;;;;;;;18.50;39.50;;;;;;466895;255;1049;-53
2021/01/31 10:31:16;;;;;;;;;;;18.50;39.50;;;;;;470835;253;1080;-53
2021/01/31 10:33:18;;;;;;;;;;;18.50;39.50;;;;;;466735;255;2158;-53
2021/01/31 10:35:19;;;;;;;;;;;18.50;39.50;;;;;;470818;253;1111;-54
2021/01/31 10:37:20;;;;;;;;;;;18.50;39.50;;;;;;466782;255;1107;-53
2021/01/31 10:39:23;;;;;;;;;;;18.50;39.50;;;;;;470745;253;1061;-54
2021/01/31 10:41:23;;;;;;;;;;;18.40;39.50;;;;;;466580;255;2225;-54
2021/01/31 10:43:24;;;;;;;;;;;18.40;39.50;;;;;;470833;253;1051;-53
2021/01/31 10:45:26;;;;;;;;;;;18.40;39.60;;;;;;466812;255;1120;-54
2021/01/31 10:47:27;;;;;;;;;;;18.40;39.50;;;;;;470899;253;1039;-53
2021/01/31 10:49:28;;;;;;;;;;;18.40;39.50;;;;;;466672;255;2389;-53
2021/01/31 10:51:32;;;;;;;;;;;18.40;39.50;;;;;;470755;253;1068;-53
2021/01/31 10:53:31;;;;;;;;;;;18.40;39.50;;;;;;466500;256;2230;-54
2021/01/31 10:55:32;;;;;;;;;;;18.40;39.50;;;;;;470669;253;1067;-53
2021/01/31 10:57:33;;;;;;;;;;;18.40;39.50;;;;;;466595;256;1064;-53
2021/01/31 10:59:35;;;;;;;;;;;18.40;39.60;;;;;;470706;253;1085;-53
2021/01/31 11:01:36;;;;;;;;;;;18.40;39.50;;;;;;466622;255;1037;-53
2021/01/31 11:03:37;;;;;;;;;;;18.30;39.50;;;;;;470738;253;1175;-54
2021/01/31 11:05:39;;;;;;;;;;;18.30;39.50;;;;;;466657;255;981;-54
2021/01/31 11:07:40;;;;;;;;;;;18.30;39.50;;;;;;470893;253;1046;-54
2021/01/31 11:09:41;;;;;;;;;;;18.30;39.50;;;;;;466706;255;1109;-53
2021/01/31 11:11:42;;;;;;;;;;;18.30;39.50;;;;;;470703;253;1061;-53
2021/01/31 11:13:44;;;;;;;;;;;18.30;39.50;;;;;;466641;256;2209;-54
2021/01/31 11:15:45;;;;;;;;;;;18.30;39.50;;;;;;470662;253;1228;-54
2021/01/31 11:17:46;;;;;;;;;;;18.30;39.50;;;;;;466734;255;1056;-54
2021/01/31 11:19:47;;;;;;;;;;;18.30;39.50;;;;;;470910;253;1202;-53
2021/01/31 11:21:49;;;;;;;;;;;18.30;39.50;;;;;;466660;255;1113;-53
2021/01/31 11:23:50;;;;;;;;;;;18.30;39.50;;;;;;470914;253;1119;-53
2021/01/31 11:25:51;;;;;;;;;;;18.30;39.50;;;;;;466854;255;1045;-53
2021/01/31 11:27:53;;;;;;;;;;;18.30;39.50;;;;;;470798;253;992;-53
2021/01/31 11:29:54;;;;;;;;;;;18.30;39.50;;;;;;466719;255;992;-53
2021/01/31 11:31:55;;;;;;;;;;;18.30;39.50;;;;;;470845;253;1093;-52
2021/01/31 11:33:56;;;;;;;;;;;18.30;39.50;;;;;;466823;255;2161;-53
2021/01/31 11:35:58;;;;;;;;;;;18.30;39.40;;;;;;470814;253;1125;-53
2021/01/31 11:37:59;;;;;;;;;;;18.30;38.10;;;;;;466635;255;1170;-54
2021/01/31 11:40:00;;;;;;;;;;;18.30;39.40;;;;;;470746;253;1073;-54
2021/01/31 11:42:02;;;;;;;;;;;18.20;38.10;;;;;;466760;255;1072;-53
2021/01/31 11:44:03;;;;;;;;;;;18.30;39.50;;;;;;470718;253;1125;-53
2021/01/31 11:46:04;;;;;;;;;;;18.30;39.40;;;;;;466660;255;1069;-53
2021/01/31 11:48:05;;;;;;;;;;;18.30;39.40;;;;;;471089;253;1093;-53
2021/01/31 11:50:07;;;;;;;;;;;18.30;38.10;;;;;;466651;256;1232;-54
2021/01/31 11:52:08;;;;;;;;;;;18.30;39.40;;;;;;470818;253;1085;-53
2021/01/31 11:54:09;;;;;;;;;;;18.30;39.40;;;;;;466738;255;2145;-52
2021/01/31 11:56:11;;;;;;;;;;;18.30;39.40;;;;;;470785;253;1042;-53